sensor_id;sensor_type;location;lat;lon;timestamp;pressure;altitude;pressure_sealevel;temperature;humidity
818;BME280;391;51.052;6.954;2023-05-19T00:01:39;101834.13;;;14.99;54.64
818;BME280;391;51.052;6.954;2023-05-19T00:03:50;101826.06;;;14.93;54.76
818;BME280;391;51.052;6.954;2023-05-19T00:05:55;101830.38;;;14.91;54.72
818;BME280;391;51.052;6.954;2023-05-19T00:08:00;101832.06;;;14.89;55.02
818;BME280;391;51.052;6.954;2023-05-19T00:10:06;101825.81;;;14.83;54.86
818;BME280;391;51.052;6.954;2023-05-19T00:12:11;101827.28;;;14.74;55.07
818;BME280;391;51.052;6.954;2023-05-19T00:14:15;101823.44;;;14.63;55.19
818;BME280;391;51.052;6.954;2023-05-19T00:16:19;101819.72;;;14.55;55.54
818;BME280;391;51.052;6.954;2023-05-19T00:18:23;101828.16;;;14.46;56.08
818;BME280;391;51.052;6.954;2023-05-19T00:20:29;101819.22;;;14.40;56.11
818;BME280;391;51.052;6.954;2023-05-19T00:22:32;101821.72;;;14.35;56.29
818;BME280;391;51.052;6.954;2023-05-19T00:24:36;101818.78;;;14.26;56.40
818;BME280;391;51.052;6.954;2023-05-19T00:26:39;101824.78;;;14.23;56.59
818;BME280;391;51.052;6.954;2023-05-19T00:28:43;101729.25;;;13.60;56.79
818;BME280;391;51.052;6.954;2023-05-19T00:30:46;101830.94;;;14.24;57.02
818;BME280;391;51.052;6.954;2023-05-19T00:32:50;101824.03;;;14.26;57.19
818;BME280;391;51.052;6.954;2023-05-19T00:34:53;101827.66;;;14.31;57.06
818;BME280;391;51.052;6.954;2023-05-19T00:36:58;101827.66;;;14.31;57.33
818;BME280;391;51.052;6.954;2023-05-19T00:39:02;101827.50;;;14.26;57.07
818;BME280;391;51.052;6.954;2023-05-19T00:41:06;101819.44;;;14.19;57.24
818;BME280;391;51.052;6.954;2023-05-19T00:43:09;101825.47;;;14.16;57.53
818;BME280;391;51.052;6.954;2023-05-19T00:45:12;101827.09;;;14.13;57.60
818;BME280;391;51.052;6.954;2023-05-19T00:47:16;101826.22;;;14.12;57.92
818;BME280;391;51.052;6.954;2023-05-19T00:49:19;101825.16;;;14.07;57.92
818;BME280;391;51.052;6.954;2023-05-19T00:51:25;101826.00;;;14.06;57.97
818;BME280;391;51.052;6.954;2023-05-19T00:53:33;101818.88;;;14.02;58.17
818;BME280;391;51.052;6.954;2023-05-19T00:55:37;101830.16;;;14.00;58.32
818;BME280;391;51.052;6.954;2023-05-19T00:57:42;101818.63;;;13.95;58.40
818;BME280;391;51.052;6.954;2023-05-19T00:59:47;101822.25;;;13.98;58.38
818;BME280;391;51.052;6.954;2023-05-19T01:01:51;101819.41;;;13.92;58.47
818;BME280;391;51.052;6.954;2023-05-19T01:03:55;101821.16;;;13.92;58.90
818;BME280;391;51.052;6.954;2023-05-19T01:06:00;101829.97;;;13.94;58.92
818;BME280;391;51.052;6.954;2023-05-19T01:08:06;101823.00;;;13.94;58.79
818;BME280;391;51.052;6.954;2023-05-19T01:10:12;101830.88;;;13.94;58.83
818;BME280;391;51.052;6.954;2023-05-19T01:12:15;101829.97;;;13.94;58.76
818;BME280;391;51.052;6.954;2023-05-19T01:14:19;101815.78;;;13.87;58.87
818;BME280;391;51.052;6.954;2023-05-19T01:16:26;101829.41;;;13.77;58.81
818;BME280;391;51.052;6.954;2023-05-19T01:18:42;101810.06;;;13.73;59.27
818;BME280;391;51.052;6.954;2023-05-19T01:20:50;101815.22;;;13.70;59.20
818;BME280;391;51.052;6.954;2023-05-19T01:23:16;101815.16;;;13.69;59.43
818;BME280;391;51.052;6.954;2023-05-19T01:25:39;101807.34;;;13.70;59.49
818;BME280;391;51.052;6.954;2023-05-19T01:28:14;101805.41;;;13.65;59.64
818;BME280;391;51.052;6.954;2023-05-19T01:30:28;101806.31;;;13.65;59.78
818;BME280;391;51.052;6.954;2023-05-19T01:32:32;101809.56;;;13.58;59.53
818;BME280;391;51.052;6.954;2023-05-19T01:34:41;101805.13;;;13.56;59.92
818;BME280;391;51.052;6.954;2023-05-19T01:36:46;101802.41;;;13.53;60.04
818;BME280;391;51.052;6.954;2023-05-19T01:38:53;101798.88;;;13.52;60.07
818;BME280;391;51.052;6.954;2023-05-19T01:40:58;101803.91;;;13.46;60.13
818;BME280;391;51.052;6.954;2023-05-19T01:43:03;101806.28;;;13.40;60.23
818;BME280;391;51.052;6.954;2023-05-19T01:45:07;101800.59;;;13.27;60.25
818;BME280;391;51.052;6.954;2023-05-19T01:47:14;101806.78;;;13.29;60.47
818;BME280;391;51.052;6.954;2023-05-19T01:49:18;101807.72;;;13.31;60.42
818;BME280;391;51.052;6.954;2023-05-19T01:51:21;101802.47;;;13.31;60.60
818;BME280;391;51.052;6.954;2023-05-19T01:53:25;101805.22;;;13.34;60.74
818;BME280;391;51.052;6.954;2023-05-19T01:55:28;101813.19;;;13.37;60.70
818;BME280;391;51.052;6.954;2023-05-19T01:57:38;101808.72;;;13.34;60.68
818;BME280;391;51.052;6.954;2023-05-19T01:59:51;101817.34;;;13.32;60.70
818;BME280;391;51.052;6.954;2023-05-19T02:02:01;101811.91;;;13.25;60.87
818;BME280;391;51.052;6.954;2023-05-19T02:04:18;101813.41;;;13.19;61.07
818;BME280;391;51.052;6.954;2023-05-19T02:06:33;101818.84;;;13.23;61.17
818;BME280;391;51.052;6.954;2023-05-19T02:08:42;101815.34;;;13.24;61.24
818;BME280;391;51.052;6.954;2023-05-19T02:10:50;101816.94;;;13.19;61.27
818;BME280;391;51.052;6.954;2023-05-19T02:13:03;101815.09;;;13.17;61.23
818;BME280;391;51.052;6.954;2023-05-19T02:15:10;101805.16;;;13.08;61.37
818;BME280;391;51.052;6.954;2023-05-19T02:17:17;101814.66;;;13.06;61.49
818;BME280;391;51.052;6.954;2023-05-19T02:19:25;101807.72;;;13.07;61.63
818;BME280;391;51.052;6.954;2023-05-19T02:21:30;101810.25;;;13.05;61.77
818;BME280;391;51.052;6.954;2023-05-19T02:23:33;101811.13;;;13.04;61.74
818;BME280;391;51.052;6.954;2023-05-19T02:25:37;101815.28;;;12.99;61.75
818;BME280;391;51.052;6.954;2023-05-19T02:27:40;101805.38;;;12.91;62.01
818;BME280;391;51.052;6.954;2023-05-19T02:29:44;101813.72;;;12.81;61.98
818;BME280;391;51.052;6.954;2023-05-19T02:31:47;101811.81;;;12.77;62.23
818;BME280;391;51.052;6.954;2023-05-19T02:33:51;101812.00;;;12.81;62.49
818;BME280;391;51.052;6.954;2023-05-19T02:35:56;101805.25;;;12.64;62.19
818;BME280;391;51.052;6.954;2023-05-19T02:37:59;101813.09;;;12.64;62.52
818;BME280;391;51.052;6.954;2023-05-19T02:40:04;101807.84;;;12.64;62.44
818;BME280;391;51.052;6.954;2023-05-19T02:42:08;101804.97;;;12.56;62.52
818;BME280;391;51.052;6.954;2023-05-19T02:44:11;101803.13;;;12.54;62.92
818;BME280;391;51.052;6.954;2023-05-19T02:46:15;101802.25;;;12.53;62.98
818;BME280;391;51.052;6.954;2023-05-19T02:48:18;101795.56;;;12.61;63.13
818;BME280;391;51.052;6.954;2023-05-19T02:50:22;101789.50;;;12.62;62.84
818;BME280;391;51.052;6.954;2023-05-19T02:52:26;101796.16;;;12.54;62.93
818;BME280;391;51.052;6.954;2023-05-19T02:54:31;101790.69;;;12.48;63.05
818;BME280;391;51.052;6.954;2023-05-19T02:56:34;101781.00;;;12.46;63.36
818;BME280;391;51.052;6.954;2023-05-19T02:58:38;101778.34;;;12.44;63.23
818;BME280;391;51.052;6.954;2023-05-19T03:00:44;101775.66;;;12.43;63.60
818;BME280;391;51.052;6.954;2023-05-19T03:02:47;101784.63;;;12.49;63.68
818;BME280;391;51.052;6.954;2023-05-19T03:04:51;101784.88;;;12.55;63.74
818;BME280;391;51.052;6.954;2023-05-19T03:06:55;101782.13;;;12.52;63.42
818;BME280;391;51.052;6.954;2023-05-19T03:08:59;101780.00;;;12.42;63.48
818;BME280;391;51.052;6.954;2023-05-19T03:11:03;101778.09;;;12.38;64.05
818;BME280;391;51.052;6.954;2023-05-19T03:13:06;101786.94;;;12.42;64.01
818;BME280;391;51.052;6.954;2023-05-19T03:15:10;101781.91;;;12.46;63.78
818;BME280;391;51.052;6.954;2023-05-19T03:17:16;101780.66;;;12.37;64.04
818;BME280;391;51.052;6.954;2023-05-19T03:19:19;101773.75;;;12.39;63.84
818;BME280;391;51.052;6.954;2023-05-19T03:21:25;101780.06;;;12.44;63.85
818;BME280;391;51.052;6.954;2023-05-19T03:23:29;101783.31;;;12.38;63.70
818;BME280;391;51.052;6.954;2023-05-19T03:25:34;101791.06;;;12.35;63.95
818;BME280;391;51.052;6.954;2023-05-19T03:27:37;101764.22;;;12.17;64.34
818;BME280;391;51.052;6.954;2023-05-19T03:29:41;101792.03;;;12.37;64.10
818;BME280;391;51.052;6.954;2023-05-19T03:31:44;101789.34;;;12.36;63.94
818;BME280;391;51.052;6.954;2023-05-19T03:33:50;101786.69;;;12.34;64.21
818;BME280;391;51.052;6.954;2023-05-19T03:35:55;101785.31;;;12.22;64.49
818;BME280;391;51.052;6.954;2023-05-19T03:37:59;101793.66;;;12.13;64.96
818;BME280;391;51.052;6.954;2023-05-19T03:40:03;101784.81;;;12.09;65.17
818;BME280;391;51.052;6.954;2023-05-19T03:42:11;101787.50;;;12.11;65.62
818;BME280;391;51.052;6.954;2023-05-19T03:44:14;101782.47;;;12.15;65.78
818;BME280;391;51.052;6.954;2023-05-19T03:46:19;101787.06;;;12.23;65.80
818;BME280;391;51.052;6.954;2023-05-19T03:48:53;101779.19;;;12.21;65.51
818;BME280;391;51.052;6.954;2023-05-19T03:51:32;101777.81;;;12.08;65.52
818;BME280;391;51.052;6.954;2023-05-19T03:53:45;101778.75;;;12.10;65.94
818;BME280;391;51.052;6.954;2023-05-19T03:55:49;101772.88;;;12.16;65.93
818;BME280;391;51.052;6.954;2023-05-19T03:57:54;101779.91;;;12.17;65.89
818;BME280;391;51.052;6.954;2023-05-19T03:59:58;101779.84;;;12.15;65.95
818;BME280;391;51.052;6.954;2023-05-19T04:02:01;101753.53;;;11.90;65.82
818;BME280;391;51.052;6.954;2023-05-19T04:04:05;101772.63;;;12.10;65.92
818;BME280;391;51.052;6.954;2023-05-19T04:06:08;101779.84;;;12.15;66.00
818;BME280;391;51.052;6.954;2023-05-19T04:08:12;101776.47;;;12.18;66.29
818;BME280;391;51.052;6.954;2023-05-19T04:10:15;101775.44;;;12.14;66.16
818;BME280;391;51.052;6.954;2023-05-19T04:12:19;101778.06;;;12.14;66.32
818;BME280;391;51.052;6.954;2023-05-19T04:14:23;101784.19;;;12.15;65.82
818;BME280;391;51.052;6.954;2023-05-19T04:16:30;101773.59;;;12.12;66.21
818;BME280;391;51.052;6.954;2023-05-19T04:18:34;101775.50;;;12.16;66.13
818;BME280;391;51.052;6.954;2023-05-19T04:20:43;101780.72;;;12.16;65.95
818;BME280;391;51.052;6.954;2023-05-19T04:22:47;101778.19;;;12.17;66.02
818;BME280;391;51.052;6.954;2023-05-19T04:24:50;101786.25;;;12.24;65.86
818;BME280;391;51.052;6.954;2023-05-19T04:26:54;101789.88;;;12.27;65.88
818;BME280;391;51.052;6.954;2023-05-19T04:28:58;101789.06;;;12.28;66.03
818;BME280;391;51.052;6.954;2023-05-19T04:31:03;101763.44;;;12.19;65.90
818;BME280;391;51.052;6.954;2023-05-19T04:33:11;101781.38;;;12.33;66.15
818;BME280;391;51.052;6.954;2023-05-19T04:35:16;101784.97;;;12.35;66.00
818;BME280;391;51.052;6.954;2023-05-19T04:37:21;101770.00;;;12.32;65.87
818;BME280;391;51.052;6.954;2023-05-19T04:39:25;101782.34;;;12.35;66.13
818;BME280;391;51.052;6.954;2023-05-19T04:41:28;101785.00;;;12.36;66.47
818;BME280;391;51.052;6.954;2023-05-19T04:43:32;101787.50;;;12.33;66.28
818;BME280;391;51.052;6.954;2023-05-19T04:45:36;101784.97;;;12.35;66.54
818;BME280;391;51.052;6.954;2023-05-19T04:47:46;101796.16;;;12.32;66.75
818;BME280;391;51.052;6.954;2023-05-19T04:49:50;101788.16;;;12.28;66.86
818;BME280;391;51.052;6.954;2023-05-19T04:51:56;101775.56;;;12.17;67.28
818;BME280;391;51.052;6.954;2023-05-19T04:54:03;101786.38;;;12.27;67.47
818;BME280;391;51.052;6.954;2023-05-19T04:56:08;101792.53;;;12.29;67.49
818;BME280;391;51.052;6.954;2023-05-19T04:58:14;101791.69;;;12.28;67.65
818;BME280;391;51.052;6.954;2023-05-19T05:00:20;101790.81;;;12.29;67.90
818;BME280;391;51.052;6.954;2023-05-19T05:02:29;101788.22;;;12.29;67.66
818;BME280;391;51.052;6.954;2023-05-19T05:04:35;101793.66;;;12.35;67.75
818;BME280;391;51.052;6.954;2023-05-19T05:06:41;101796.47;;;12.40;68.04
818;BME280;391;51.052;6.954;2023-05-19T05:08:49;101788.84;;;12.46;67.95
818;BME280;391;51.052;6.954;2023-05-19T05:10:54;101791.81;;;12.55;67.99
818;BME280;391;51.052;6.954;2023-05-19T05:12:58;101795.63;;;12.63;68.01
818;BME280;391;51.052;6.954;2023-05-19T05:15:03;101791.34;;;12.65;67.66
818;BME280;391;51.052;6.954;2023-05-19T05:17:10;101788.91;;;12.69;67.64
818;BME280;391;51.052;6.954;2023-05-19T05:19:16;101792.38;;;12.70;67.19
818;BME280;391;51.052;6.954;2023-05-19T05:21:21;101778.44;;;12.69;67.08
818;BME280;391;51.052;6.954;2023-05-19T05:23:25;101792.84;;;12.82;67.02
818;BME280;391;51.052;6.954;2023-05-19T05:25:31;101799.94;;;12.85;66.56
818;BME280;391;51.052;6.954;2023-05-19T05:27:35;101796.47;;;12.86;66.24
818;BME280;391;51.052;6.954;2023-05-19T05:29:40;101803.59;;;12.90;65.75
818;BME280;391;51.052;6.954;2023-05-19T05:31:44;101808.00;;;12.91;65.40
818;BME280;391;51.052;6.954;2023-05-19T05:33:48;101790.50;;;12.90;64.87
818;BME280;391;51.052;6.954;2023-05-19T05:35:55;101803.69;;;12.93;64.54
818;BME280;391;51.052;6.954;2023-05-19T05:38:01;101811.06;;;13.03;63.95
818;BME280;391;51.052;6.954;2023-05-19T05:40:05;101808.44;;;13.03;63.29
818;BME280;391;51.052;6.954;2023-05-19T05:42:10;101802.25;;;13.01;62.71
818;BME280;391;51.052;6.954;2023-05-19T05:44:14;101803.91;;;12.99;62.72
818;BME280;391;51.052;6.954;2023-05-19T05:46:19;101790.72;;;12.96;62.10
818;BME280;391;51.052;6.954;2023-05-19T05:48:23;101800.75;;;13.07;61.81
818;BME280;391;51.052;6.954;2023-05-19T05:50:27;101800.19;;;13.14;61.48
818;BME280;391;51.052;6.954;2023-05-19T05:52:31;101801.25;;;13.21;61.16
818;BME280;391;51.052;6.954;2023-05-19T05:54:37;101799.59;;;13.23;60.95
818;BME280;391;51.052;6.954;2023-05-19T05:56:42;101798.69;;;13.22;60.92
818;BME280;391;51.052;6.954;2023-05-19T05:58:46;101774.94;;;13.16;60.59
818;BME280;391;51.052;6.954;2023-05-19T06:00:50;101800.28;;;13.43;60.35
818;BME280;391;51.052;6.954;2023-05-19T06:02:56;101799.28;;;13.39;59.60
818;BME280;391;51.052;6.954;2023-05-19T06:05:01;101692.91;;;12.68;59.41
818;BME280;391;51.052;6.954;2023-05-19T06:07:07;101805.53;;;13.17;59.63
818;BME280;391;51.052;6.954;2023-05-19T06:09:12;101802.22;;;13.23;59.88
818;BME280;391;51.052;6.954;2023-05-19T06:11:19;101800.91;;;13.36;59.61
818;BME280;391;51.052;6.954;2023-05-19T06:13:23;101784.03;;;13.27;59.60
818;BME280;391;51.052;6.954;2023-05-19T06:15:27;101789.53;;;13.35;59.44
818;BME280;391;51.052;6.954;2023-05-19T06:17:35;101791.69;;;13.47;59.17
818;BME280;391;51.052;6.954;2023-05-19T06:19:39;101793.66;;;13.54;59.00
818;BME280;391;51.052;6.954;2023-05-19T06:21:42;101785.09;;;13.58;59.02
818;BME280;391;51.052;6.954;2023-05-19T06:23:46;101781.88;;;13.66;58.79
818;BME280;391;51.052;6.954;2023-05-19T06:25:49;101789.78;;;13.68;58.59
818;BME280;391;51.052;6.954;2023-05-19T06:27:54;101784.88;;;13.78;59.92
818;BME280;391;51.052;6.954;2023-05-19T06:29:58;101782.59;;;14.16;60.26
818;BME280;391;51.052;6.954;2023-05-19T06:32:06;101784.94;;;14.34;60.12
818;BME280;391;51.052;6.954;2023-05-19T06:34:10;101788.81;;;14.46;59.85
818;BME280;391;51.052;6.954;2023-05-19T06:36:16;101776.22;;;14.35;58.77
818;BME280;391;51.052;6.954;2023-05-19T06:38:21;101783.19;;;14.34;58.38
818;BME280;391;51.052;6.954;2023-05-19T06:40:26;101783.28;;;14.37;58.13
818;BME280;391;51.052;6.954;2023-05-19T06:42:32;101786.06;;;14.42;58.03
818;BME280;391;51.052;6.954;2023-05-19T06:44:51;101788.88;;;14.49;57.64
818;BME280;391;51.052;6.954;2023-05-19T06:46:55;101776.56;;;14.45;57.16
818;BME280;391;51.052;6.954;2023-05-19T06:48:59;101788.81;;;14.46;57.32
818;BME280;391;51.052;6.954;2023-05-19T06:51:06;101781.09;;;14.51;57.04
818;BME280;391;51.052;6.954;2023-05-19T06:53:13;101787.44;;;14.59;56.62
818;BME280;391;51.052;6.954;2023-05-19T06:55:17;101763.47;;;14.47;56.58
818;BME280;391;51.052;6.954;2023-05-19T06:57:23;101786.50;;;14.57;56.16
818;BME280;391;51.052;6.954;2023-05-19T06:59:27;101778.38;;;14.48;56.02
818;BME280;391;51.052;6.954;2023-05-19T07:01:32;101781.81;;;14.45;55.88
818;BME280;391;51.052;6.954;2023-05-19T07:03:36;101783.72;;;14.51;56.23
818;BME280;391;51.052;6.954;2023-05-19T07:05:40;101785.63;;;14.56;56.01
818;BME280;391;51.052;6.954;2023-05-19T07:07:44;101784.97;;;14.65;55.64
818;BME280;391;51.052;6.954;2023-05-19T07:09:52;101787.75;;;14.69;55.11
818;BME280;391;51.052;6.954;2023-05-19T07:11:55;101787.84;;;14.72;54.56
818;BME280;391;51.052;6.954;2023-05-19T07:13:59;101786.38;;;14.82;54.39
818;BME280;391;51.052;6.954;2023-05-19T07:16:05;101786.50;;;14.87;53.75
818;BME280;391;51.052;6.954;2023-05-19T07:18:10;101784.47;;;14.76;53.51
818;BME280;391;51.052;6.954;2023-05-19T07:20:14;101791.53;;;14.79;53.88
818;BME280;391;51.052;6.954;2023-05-19T07:22:18;101778.66;;;14.88;53.72
818;BME280;391;51.052;6.954;2023-05-19T07:24:22;101790.38;;;15.01;53.26
818;BME280;391;51.052;6.954;2023-05-19T07:26:26;101781.84;;;15.09;52.85
818;BME280;391;51.052;6.954;2023-05-19T07:28:29;101777.56;;;15.11;51.30
818;BME280;391;51.052;6.954;2023-05-19T07:30:32;101783.72;;;15.13;50.94
818;BME280;391;51.052;6.954;2023-05-19T07:32:36;101781.91;;;15.11;50.91
818;BME280;391;51.052;6.954;2023-05-19T07:34:41;101784.03;;;15.24;50.77
818;BME280;391;51.052;6.954;2023-05-19T07:36:45;101776.88;;;15.18;49.92
818;BME280;391;51.052;6.954;2023-05-19T07:38:48;101786.06;;;15.34;50.15
818;BME280;391;51.052;6.954;2023-05-19T07:40:52;101786.31;;;15.45;50.07
818;BME280;391;51.052;6.954;2023-05-19T07:42:55;101795.16;;;15.47;49.61
818;BME280;391;51.052;6.954;2023-05-19T07:44:58;101783.75;;;15.46;49.52
818;BME280;391;51.052;6.954;2023-05-19T07:47:04;101794.56;;;15.57;49.14
818;BME280;391;51.052;6.954;2023-05-19T07:49:08;101785.19;;;15.66;48.86
818;BME280;391;51.052;6.954;2023-05-19T07:51:12;101783.47;;;15.68;48.61
818;BME280;391;51.052;6.954;2023-05-19T07:53:17;101779.25;;;15.75;48.54
818;BME280;391;51.052;6.954;2023-05-19T07:55:20;101782.72;;;15.74;47.59
818;BME280;391;51.052;6.954;2023-05-19T07:57:25;101775.59;;;15.70;47.80
818;BME280;391;51.052;6.954;2023-05-19T07:59:28;101771.22;;;15.70;48.06
818;BME280;391;51.052;6.954;2023-05-19T08:01:31;101776.06;;;15.88;47.70
818;BME280;391;51.052;6.954;2023-05-19T08:03:35;101756.94;;;15.95;48.04
818;BME280;391;51.052;6.954;2023-05-19T08:05:39;101768.78;;;16.14;47.89
818;BME280;391;51.052;6.954;2023-05-19T08:07:43;101770.66;;;16.19;47.90
818;BME280;391;51.052;6.954;2023-05-19T08:09:47;101761.03;;;16.21;47.52
818;BME280;391;51.052;6.954;2023-05-19T08:11:50;101763.66;;;16.20;47.35
818;BME280;391;51.052;6.954;2023-05-19T08:13:54;101766.41;;;16.26;47.36
818;BME280;391;51.052;6.954;2023-05-19T08:15:57;101756.94;;;16.34;47.20
818;BME280;391;51.052;6.954;2023-05-19T08:18:01;101761.34;;;16.33;46.47
818;BME280;391;51.052;6.954;2023-05-19T08:20:07;101726.50;;;16.06;46.49
818;BME280;391;51.052;6.954;2023-05-19T08:22:11;101747.16;;;16.28;46.11
818;BME280;391;51.052;6.954;2023-05-19T08:24:16;101757.88;;;16.36;45.87
818;BME280;391;51.052;6.954;2023-05-19T08:26:19;101751.34;;;16.19;46.78
818;BME280;391;51.052;6.954;2023-05-19T08:28:24;101756.06;;;16.33;46.86
818;BME280;391;51.052;6.954;2023-05-19T08:30:27;101754.47;;;16.41;46.67
818;BME280;391;51.052;6.954;2023-05-19T08:32:31;101665.63;;;15.89;46.64
818;BME280;391;51.052;6.954;2023-05-19T08:34:34;101753.13;;;16.59;45.76
818;BME280;391;51.052;6.954;2023-05-19T08:36:38;101748.03;;;16.68;45.52
818;BME280;391;51.052;6.954;2023-05-19T08:38:41;101743.00;;;16.80;45.49
818;BME280;391;51.052;6.954;2023-05-19T08:40:46;101752.94;;;16.94;45.11
818;BME280;391;51.052;6.954;2023-05-19T08:42:50;101742.56;;;17.02;44.95
818;BME280;391;51.052;6.954;2023-05-19T08:44:53;101726.84;;;17.08;44.98
818;BME280;391;51.052;6.954;2023-05-19T08:47:00;101741.00;;;17.12;45.34
818;BME280;391;51.052;6.954;2023-05-19T08:49:10;101735.88;;;17.21;44.50
818;BME280;391;51.052;6.954;2023-05-19T08:51:19;101727.84;;;17.15;44.05
818;BME280;391;51.052;6.954;2023-05-19T08:53:26;101735.81;;;17.18;44.31
818;BME280;391;51.052;6.954;2023-05-19T08:55:41;101735.03;;;17.23;44.42
818;BME280;391;51.052;6.954;2023-05-19T08:57:47;101736.91;;;17.30;45.31
818;BME280;391;51.052;6.954;2023-05-19T08:59:53;101732.41;;;17.23;44.77
818;BME280;391;51.052;6.954;2023-05-19T09:01:57;101733.22;;;17.19;45.43
818;BME280;391;51.052;6.954;2023-05-19T09:04:01;101726.91;;;17.11;45.96
818;BME280;391;51.052;6.954;2023-05-19T09:06:06;101709.31;;;17.09;44.95
818;BME280;391;51.052;6.954;2023-05-19T09:08:10;101722.47;;;17.09;45.14
818;BME280;391;51.052;6.954;2023-05-19T09:10:13;101717.25;;;17.12;45.37
818;BME280;391;51.052;6.954;2023-05-19T09:12:17;101725.38;;;17.22;45.08
818;BME280;391;51.052;6.954;2023-05-19T09:14:22;101721.16;;;17.32;44.90
818;BME280;391;51.052;6.954;2023-05-19T09:16:26;101716.91;;;17.41;44.22
818;BME280;391;51.052;6.954;2023-05-19T09:18:31;101717.19;;;17.58;43.57
818;BME280;391;51.052;6.954;2023-05-19T09:20:39;101712.97;;;17.68;43.26
818;BME280;391;51.052;6.954;2023-05-19T09:22:43;101615.44;;;17.15;42.38
818;BME280;391;51.052;6.954;2023-05-19T09:24:48;101706.22;;;17.86;41.79
818;BME280;391;51.052;6.954;2023-05-19T09:26:53;101706.44;;;18.03;41.74
818;BME280;391;51.052;6.954;2023-05-19T09:29:01;101707.56;;;18.20;41.88
818;BME280;391;51.052;6.954;2023-05-19T09:31:06;101684.03;;;18.37;42.40
818;BME280;391;51.052;6.954;2023-05-19T09:33:16;101694.94;;;18.64;44.11
818;BME280;391;51.052;6.954;2023-05-19T09:35:19;101697.72;;;18.76;42.70
818;BME280;391;51.052;6.954;2023-05-19T09:37:23;101691.63;;;18.82;41.27
818;BME280;391;51.052;6.954;2023-05-19T09:39:26;101690.84;;;18.90;41.75
818;BME280;391;51.052;6.954;2023-05-19T09:41:31;101679.59;;;19.11;41.78
818;BME280;391;51.052;6.954;2023-05-19T09:43:35;101689.41;;;19.26;41.53
818;BME280;391;51.052;6.954;2023-05-19T09:45:38;101684.94;;;19.19;40.85
818;BME280;391;51.052;6.954;2023-05-19T09:47:43;101697.25;;;19.18;39.17
818;BME280;391;51.052;6.954;2023-05-19T09:49:47;101680.63;;;19.31;40.15
818;BME280;391;51.052;6.954;2023-05-19T09:51:53;101696.72;;;19.52;39.33
818;BME280;391;51.052;6.954;2023-05-19T09:53:57;101689.78;;;19.70;38.78
818;BME280;391;51.052;6.954;2023-05-19T09:56:01;101695.09;;;19.71;38.09
818;BME280;391;51.052;6.954;2023-05-19T09:58:05;101696.03;;;19.85;37.79
818;BME280;391;51.052;6.954;2023-05-19T10:00:10;101688.16;;;19.93;37.02
818;BME280;391;51.052;6.954;2023-05-19T10:02:17;101693.53;;;20.03;36.97
818;BME280;391;51.052;6.954;2023-05-19T10:04:26;101685.56;;;20.02;36.42
818;BME280;391;51.052;6.954;2023-05-19T10:06:30;101684.66;;;19.94;36.38
818;BME280;391;51.052;6.954;2023-05-19T10:08:35;101689.84;;;19.80;36.53
818;BME280;391;51.052;6.954;2023-05-19T10:10:40;101688.16;;;19.91;38.29
818;BME280;391;51.052;6.954;2023-05-19T10:12:44;101684.75;;;20.15;36.89
818;BME280;391;51.052;6.954;2023-05-19T10:14:48;101693.69;;;20.34;36.55
818;BME280;391;51.052;6.954;2023-05-19T10:16:55;101686.69;;;20.45;36.33
818;BME280;391;51.052;6.954;2023-05-19T10:18:59;101684.84;;;20.30;35.40
818;BME280;391;51.052;6.954;2023-05-19T10:21:06;101689.28;;;20.36;36.78
818;BME280;391;51.052;6.954;2023-05-19T10:23:10;101682.28;;;20.50;34.53
818;BME280;391;51.052;6.954;2023-05-19T10:25:13;101684.94;;;20.48;34.42
818;BME280;391;51.052;6.954;2023-05-19T10:27:20;101681.41;;;20.54;34.73
818;BME280;391;51.052;6.954;2023-05-19T10:29:29;101677.84;;;20.49;34.38
818;BME280;391;51.052;6.954;2023-05-19T10:31:34;101679.66;;;20.59;34.29
818;BME280;391;51.052;6.954;2023-05-19T10:34:11;101676.16;;;20.69;34.26
818;BME280;391;51.052;6.954;2023-05-19T10:36:31;101669.97;;;20.58;34.64
818;BME280;391;51.052;6.954;2023-05-19T10:38:44;101667.31;;;20.75;34.74
818;BME280;391;51.052;6.954;2023-05-19T10:40:56;101617.75;;;20.34;33.61
818;BME280;391;51.052;6.954;2023-05-19T10:43:14;101666.47;;;20.82;34.04
818;BME280;391;51.052;6.954;2023-05-19T10:45:23;101666.50;;;20.95;33.26
818;BME280;391;51.052;6.954;2023-05-19T10:47:29;101678.91;;;21.12;33.35
818;BME280;391;51.052;6.954;2023-05-19T10:49:33;101667.38;;;21.03;33.57
818;BME280;391;51.052;6.954;2023-05-19T10:51:38;101660.31;;;20.99;34.55
818;BME280;391;51.052;6.954;2023-05-19T10:53:42;101669.13;;;20.89;33.16
818;BME280;391;51.052;6.954;2023-05-19T10:55:51;101669.97;;;20.78;33.47
818;BME280;391;51.052;6.954;2023-05-19T10:57:57;101665.59;;;20.90;33.47
818;BME280;391;51.052;6.954;2023-05-19T11:00:03;101669.19;;;21.10;32.98
818;BME280;391;51.052;6.954;2023-05-19T11:02:37;101657.66;;;20.95;33.15
818;BME280;391;51.052;6.954;2023-05-19T11:04:45;101655.00;;;21.02;32.79
818;BME280;391;51.052;6.954;2023-05-19T11:06:54;101660.34;;;21.12;33.09
818;BME280;391;51.052;6.954;2023-05-19T11:09:00;101659.44;;;21.41;32.74
818;BME280;391;51.052;6.954;2023-05-19T11:11:13;101656.72;;;21.76;32.00
818;BME280;391;51.052;6.954;2023-05-19T11:13:20;101548.94;;;21.28;32.43
818;BME280;391;51.052;6.954;2023-05-19T11:15:25;101595.75;;;21.44;32.50
818;BME280;391;51.052;6.954;2023-05-19T11:17:29;101652.34;;;21.64;32.65
818;BME280;391;51.052;6.954;2023-05-19T11:19:34;101656.81;;;21.50;32.96
818;BME280;391;51.052;6.954;2023-05-19T11:21:41;101656.81;;;21.31;33.73
818;BME280;391;51.052;6.954;2023-05-19T11:23:51;101654.09;;;21.03;34.02
818;BME280;391;51.052;6.954;2023-05-19T11:25:55;101654.13;;;20.90;33.70
818;BME280;391;51.052;6.954;2023-05-19T11:27:59;101651.44;;;20.88;33.53
818;BME280;391;51.052;6.954;2023-05-19T11:30:08;101636.44;;;20.98;33.99
818;BME280;391;51.052;6.954;2023-05-19T11:32:15;101602.88;;;21.09;33.64
818;BME280;391;51.052;6.954;2023-05-19T11:34:19;101636.41;;;21.64;33.62